Weather History for Athens, OH

Change the Weather History Date:

Friday, January 18, 2013

  Actual Average (KPKB) Record (KPKB)
Temperature  
Mean Temperature 26 °F 31 °F  
Max Temperature 34 °F 40 °F 72 °F (1929)
Min Temperature 17 °F 23 °F -15 °F (1944)
Degree Days  
Heating Degree Days 40 34  
Month to date heating degree days 605  
Since 1 July heating degree days 2515  
Cooling Degree Days 0 0  
Month to date cooling degree days 0  
Year to date cooling degree days 0  
Moisture  
Dew Point 18 °F    
Average Humidity 66    
Maximum Humidity 90    
Minimum Humidity 49    
Precipitation  
Precipitation 0.00 in 0.10 in 0.50 in (2004)
Month to date precipitation 1.70  
Year to date precipitation 1.70  
Sea Level Pressure  
Sea Level Pressure 30.42 in    
Wind  
Wind Speed 6 mph (SW)    
Max Wind Speed 14 mph    
Max Gust Speed 20 mph    
Visibility 10 miles    
Events      
T = Trace of Precipitation, MM = Missing Value Source: NWS Daily Summary

Daily Weather History Graph

Daily Weather History Graph

Search for Another Location

Airport:

Trip Planner

Search our weather history database for the weather conditions in past years. The results will help you decide how hot, cold, wet, or windy it might be!

Date:

Astronomy

Jan. 18, 2013 Rise Set
Actual Time 7:45 AM EST 5:33 PM EST
Civil Twilight 7:16 AM EST 6:03 PM EST
Nautical Twilight 6:43 AM EST 6:35 PM EST
Astronomical Twilight 6:11 AM EST 7:07 PM EST
Moon 11:26 AM EST (1/18) 12:19 AM EST (1/18)
Length of Visible Light 10h 46m
Length of Day
9h 48m
Waxing Crescent, 47% of the Moon is Illuminated
Jan 18
Waxing Crescent
Jan 18
First Quarter
Jan 26
Full
Feb 3
Last Quarter
Feb 10
New

Hourly Weather History & Observations

Time (EST) Temp. Windchill Dew Point Humidity Pressure Visibility Wind Dir Wind Speed Gust Speed Precip Events Conditions
12:15 AM 30.9 °F 22.2 °F 25.3 °F 80% 30.30 in 10.0 mi WNW 10.4 mph 17.3 mph N/A   Clear
12:35 AM 30.2 °F 19.8 °F 23.5 °F 76% 30.31 in 10.0 mi WNW 13.8 mph 18.4 mph N/A   Clear
12:55 AM 29.3 °F 19.1 °F 21.7 °F 73% 30.33 in 10.0 mi WNW 12.7 mph - N/A   Clear
1:15 AM 28.4 °F 18.5 °F 21.4 °F 75% 30.34 in 10.0 mi WNW 11.5 mph 19.6 mph N/A   Clear
1:35 AM 27.7 °F 17.6 °F 20.3 °F 74% 30.36 in 10.0 mi WNW 11.5 mph 18.4 mph N/A   Clear
1:55 AM 27.1 °F 17.5 °F 20.3 °F 75% 30.37 in 10.0 mi WNW 10.4 mph - N/A   Clear
2:15 AM 26.4 °F 17.3 °F 20.1 °F 77% 30.39 in 10.0 mi WNW 9.2 mph - N/A   Clear
2:35 AM 25.7 °F 15.7 °F 19.4 °F 77% 30.40 in 10.0 mi NW 10.4 mph 17.3 mph N/A   Clear
2:55 AM 24.8 °F 17.9 °F 18.1 °F 76% 30.42 in 10.0 mi NW 5.8 mph - N/A   Clear
3:15 AM 24.4 °F 17.5 °F 18.0 °F 76% 30.42 in 10.0 mi NNW 5.8 mph - N/A   Clear
3:35 AM 23.7 °F 15.6 °F 13.6 °F 65% 30.43 in 10.0 mi NNW 6.9 mph - N/A   Clear
3:55 AM 23.0 °F 18.4 °F 13.6 °F 67% 30.43 in 10.0 mi NNW 3.5 mph - N/A   Clear
4:15 AM 22.1 °F 17.4 °F 14.0 °F 71% 30.44 in 10.0 mi NW 3.5 mph - N/A   Clear
4:35 AM 21.7 °F 17.0 °F 14.4 °F 73% 30.44 in 10.0 mi NNW 3.5 mph - N/A   Clear
4:55 AM 21.4 °F - 14.0 °F 73% 30.44 in 10.0 mi Calm Calm - N/A   Clear
5:15 AM 21.2 °F - 13.6 °F 73% 30.45 in 10.0 mi Calm Calm - N/A   Clear
5:35 AM 20.8 °F - 14.0 °F 75% 30.47 in 10.0 mi Calm Calm - N/A   Clear
5:55 AM 19.2 °F - 14.7 °F 83% 30.47 in 10.0 mi Calm Calm - N/A   Clear
6:15 AM 18.3 °F - 14.4 °F 85% 30.48 in 10.0 mi Calm Calm - N/A   Clear
6:35 AM 18.5 °F - 15.4 °F 88% 30.48 in 10.0 mi Calm Calm - N/A   Clear
6:55 AM 18.1 °F - 15.3 °F 88% 30.49 in 10.0 mi Calm Calm - N/A   Clear
7:15 AM 17.6 °F - 14.9 °F 89% 30.50 in 10.0 mi Calm Calm - N/A   Clear
7:35 AM 17.1 °F - 14.5 °F 90% 30.49 in 10.0 mi Calm Calm - N/A   Clear
7:55 AM 17.6 °F - 14.9 °F 89% 30.50 in 10.0 mi North - - N/A   Clear
8:15 AM 17.4 °F - 14.9 °F 90% 30.51 in 10.0 mi Calm Calm - N/A   Clear
8:35 AM 19.6 °F - 16.7 °F 89% 30.51 in 10.0 mi Calm Calm - N/A   Clear
8:55 AM 21.2 °F - 17.1 °F 84% 30.51 in 10.0 mi Calm Calm - N/A   Clear
9:35 AM 24.3 °F 19.9 °F 16.2 °F 71% 30.53 in 10.0 mi South 3.5 mph - N/A   Clear
9:55 AM 25.0 °F - 17.2 °F 72% 30.54 in 10.0 mi Calm Calm - N/A   Clear
10:15 AM 25.3 °F - 14.7 °F 64% 30.54 in 10.0 mi Calm Calm - N/A   Clear
10:35 AM 25.5 °F 21.3 °F 14.2 °F 62% 30.54 in 10.0 mi West 3.5 mph - N/A   Clear
10:55 AM 27.1 °F 23.2 °F 15.3 °F 61% 30.54 in 10.0 mi SSE 3.5 mph - N/A   Clear
11:15 AM 27.3 °F 22.0 °F 15.1 °F 60% 30.53 in 10.0 mi WSW 4.6 mph - N/A   Clear
11:35 AM 28.6 °F - 16.0 °F 59% 30.52 in 10.0 mi Calm Calm - N/A   Clear
11:55 AM 28.9 °F 23.9 °F 15.8 °F 58% 30.50 in 10.0 mi South 4.6 mph - N/A   Clear
12:15 PM 29.5 °F 24.5 °F 15.8 °F 57% 30.49 in 10.0 mi SW 4.6 mph - N/A   Clear
12:35 PM 30.6 °F 27.1 °F 17.1 °F 57% 30.49 in 10.0 mi SSW 3.5 mph - N/A   Clear
12:55 PM 31.1 °F 24.5 °F 16.5 °F 55% 30.48 in 10.0 mi SW 6.9 mph - N/A   Clear
1:15 PM 31.3 °F 25.6 °F 16.5 °F 54% 30.47 in 10.0 mi South 5.8 mph - N/A   Clear
1:35 PM 32.0 °F 25.6 °F 16.0 °F 52% 30.47 in 10.0 mi SW 6.9 mph - N/A   Clear
1:55 PM 32.2 °F 27.7 °F 16.9 °F 53% 30.46 in 10.0 mi South 4.6 mph - N/A   Clear
2:15 PM 33.1 °F 26.9 °F 17.1 °F 52% 30.45 in 10.0 mi South 6.9 mph - N/A   Clear
2:35 PM 33.3 °F 25.7 °F 17.1 °F 51% 30.45 in 10.0 mi South 9.2 mph - N/A   Clear
2:55 PM 33.6 °F 25.0 °F 17.6 °F 52% 30.44 in 10.0 mi South 11.5 mph - N/A   Clear
3:15 PM 34.2 °F 26.2 °F 17.4 °F 50% 30.44 in 10.0 mi South 10.4 mph - N/A   Clear
3:35 PM 34.2 °F 27.5 °F 17.8 °F 51% 30.43 in 10.0 mi South 8.1 mph - N/A   Clear
3:55 PM 34.2 °F 26.8 °F 17.4 °F 50% 30.43 in 10.0 mi South 9.2 mph - N/A   Clear
4:15 PM 34.7 °F 28.8 °F 17.4 °F 49% 30.42 in 10.0 mi SSW 6.9 mph - N/A   Clear
4:35 PM 34.5 °F 26.7 °F 18.1 °F 51% 30.42 in 10.0 mi South 10.4 mph - N/A   Clear
4:55 PM 34.2 °F 29.0 °F 18.3 °F 52% 30.42 in 10.0 mi South 5.8 mph - N/A   Clear
5:15 PM 33.6 °F 27.5 °F 18.5 °F 54% 30.41 in 10.0 mi South 6.9 mph - N/A   Clear
5:35 PM 32.5 °F 26.2 °F 18.5 °F 56% 30.41 in 10.0 mi South 6.9 mph - N/A   Clear
5:55 PM 32.2 °F 27.7 °F 18.0 °F 56% 30.40 in 10.0 mi SSW 4.6 mph - N/A   Clear
6:15 PM 32.0 °F 26.4 °F 18.0 °F 56% 30.40 in 10.0 mi South 5.8 mph - N/A   Clear
6:35 PM 32.0 °F 26.4 °F 18.0 °F 56% 30.40 in 10.0 mi SSW 5.8 mph - N/A   Clear
6:55 PM 31.5 °F 26.8 °F 18.1 °F 58% 30.39 in 10.0 mi South 4.6 mph - N/A   Clear
7:15 PM 31.3 °F 27.9 °F 18.0 °F 58% 30.38 in 10.0 mi South 3.5 mph - N/A   Clear
7:35 PM 30.9 °F - 18.0 °F 59% 30.38 in 10.0 mi Calm Calm - N/A   Clear
7:55 PM 29.8 °F - 18.3 °F 62% 30.37 in 10.0 mi Calm Calm - N/A   Clear
8:15 PM 31.1 °F 26.4 °F 18.3 °F 59% 30.36 in 10.0 mi South 4.6 mph - N/A   Clear
8:35 PM 31.3 °F 25.6 °F 18.7 °F 60% 30.36 in 10.0 mi South 5.8 mph - N/A   Clear
8:55 PM 31.6 °F 26.0 °F 19.0 °F 60% 30.35 in 10.0 mi South 5.8 mph - N/A   Clear
9:15 PM 31.8 °F 25.4 °F 19.4 °F 60% 30.34 in 10.0 mi South 6.9 mph - N/A   Clear
9:35 PM 31.8 °F 26.2 °F 19.9 °F 62% 30.34 in 10.0 mi SSW 5.8 mph - N/A   Clear
9:55 PM 31.8 °F 25.4 °F 20.5 °F 63% 30.33 in 10.0 mi SSW 6.9 mph - N/A   Clear
10:15 PM 31.6 °F 26.0 °F 21.2 °F 65% 30.32 in 10.0 mi South 5.8 mph - N/A   Clear
10:35 PM 32.0 °F 24.8 °F 21.7 °F 66% 30.31 in 10.0 mi South 8.1 mph - N/A   Clear
10:55 PM 32.0 °F 26.4 °F 22.1 °F 67% 30.31 in 10.0 mi SSW 5.8 mph - N/A   Clear
11:15 PM 32.0 °F 25.6 °F 22.6 °F 68% 30.30 in 10.0 mi South 6.9 mph - N/A   Clear
11:35 PM 32.0 °F 24.8 °F 23.0 °F 69% 30.29 in 10.0 mi South 8.1 mph - N/A   Clear
11:55 PM 32.0 °F 25.6 °F 23.5 °F 71% 30.29 in 10.0 mi South 6.9 mph - N/A   Clear